Terminal Aerodrome Forecast
Issued by NWS Northern Indiana

Home | Current Version | Previous Version | Text Only | Print | Product List | Glossary On
Versions: 1 2 3 4 5 6 7 8 9 10 11 12 13 14 15 16
000
FTUS43 KIWX 201700
TAFFWA
TAF
KFWA 201720Z 2018/2118 25012KT P6SM SCT025 BKN040
      TEMPO 2018/2021 BKN025
     FM202100 29010KT P6SM BKN030
     FM210600 31008KT P6SM OVC020=

USA.gov is the U.S. government's official web portal to all federal, state and local government web resources and services.